Surrey Memorial Hospital Helipad

CVS3 · 不列颠哥伦比亚, 加拿大

罗盘
风向 的 风向 040° 直升机
风: 8 kt, 3 beaufort
0 ft 5.000 10.000 15.000 20.000
Cloud Cloud Cloud Cloud
SCT 15.000
Cloud Cloud Cloud Cloud Cloud Cloud
BKN 18.000
METAR CYVR 020600Z 04008KT 15SM SCT150 BKN180 03/01 A2936 RMK AC3AC3 SLP944

METAR Surrey Memorial Hospital Helipad - CVS3

Surrey Memorial Hospital Helipad是,加拿大中的直升机场。 该机场位于纬度49,17602和经度-122,84372。 该机场的伪ICAO代码为CVS3。 机场在Vancouver FIR中。

该航空气象观测是针对Vancouver International Airport在2024年3月1日 22:00, 当地时间进行的。

机场观察

风向为040°,速度为8 kt。

可见度为15 mi。

有疏云,零星散落的云朵在15.000 ft的高度 和 碎云在18.000 ft的高度。 破损或更高的上限为18.000 ft。

温度为3 °C,阵风为-3 °C。 露点为1 °C,相对湿度为87%。 海平面上的气压为29,36 inHg (QNH)。

白天

今天,太阳从06:49升起,在17:56降落。 这适用于Surrey Memorial Hospital Helipad,世界夏令时可能有所不同。 当地时间与世界标准时间之间的时差为-8 小时。 当前,没有夏令时有效。

公司介绍

我们没有关于这个机场的公司信息。

体会

到Vliegles.nl去找飞行课程,跳伞和其他飞行体验。 浏览页面,了解Surrey Memorial Hospital Helipad附近所有可用的活动。 你也可以使用搜索功能来寻找你所在地附近的特定飞行课程、跳伞或其他飞行体验。

乌云

15.000 ft SCT 疏云,零星散落的云朵
18.000 ft BKN 碎云

温度 & 天气

温度 3 °C
露点 1 °C
相对湿度 87%
风寒 -3 °C
Kp-index 0 (0-9)

评论

SLP944海平面压力为29,36 inHg (29,36 inHg)
AC3AC3

白天

日出
06:51 (8:12)
中午
12:24
日落
17:58

小工具

你想在你的网站上有一个关于Surrey Memorial Hospital Helipad的当前航空天气(METAR)的小部件吗?

显示HTML代码
?>